sensor_id;sensor_type;location;lat;lon;timestamp;pressure;altitude;pressure_sealevel;temperature;humidity
84841;BME280;75088;53.114;18.040;2024-03-23T00:53:04;100360.53;;;8.22;82.59
84841;BME280;75088;53.114;18.040;2024-03-23T00:54:11;100358.77;;;8.21;82.93
84841;BME280;75088;53.114;18.040;2024-03-23T00:55:17;100354.01;;;8.21;82.57
84841;BME280;75088;53.114;18.040;2024-03-23T00:56:23;100350.48;;;8.20;82.31
84841;BME280;75088;53.114;18.040;2024-03-23T00:57:30;100354.73;;;8.19;82.77
84841;BME280;75088;53.114;18.040;2024-03-23T00:58:36;100348.37;;;8.18;82.77
84841;BME280;75088;53.114;18.040;2024-03-23T00:59:43;100347.14;;;8.18;82.64
84841;BME280;75088;53.114;18.040;2024-03-23T01:00:49;100342.71;;;8.17;82.57
84841;BME280;75088;53.114;18.040;2024-03-23T01:01:55;100342.20;;;8.16;82.73
84841;BME280;75088;53.114;18.040;2024-03-23T01:03:01;100349.63;;;8.16;82.39
84841;BME280;75088;53.114;18.040;2024-03-23T01:04:08;100352.46;;;8.15;82.38
84841;BME280;75088;53.114;18.040;2024-03-23T01:05:14;100351.95;;;8.14;82.33
84841;BME280;75088;53.114;18.040;2024-03-23T01:06:20;100351.77;;;8.13;82.58
84841;BME280;75088;53.114;18.040;2024-03-23T01:07:26;100356.55;;;8.12;82.42
84841;BME280;75088;53.114;18.040;2024-03-23T01:08:33;100353.55;;;8.11;82.48
84841;BME280;75088;53.114;18.040;2024-03-23T01:09:39;100354.09;;;8.10;82.18
84841;BME280;75088;53.114;18.040;2024-03-23T01:10:55;100354.79;;;8.10;82.56
84841;BME280;75088;53.114;18.040;2024-03-23T01:12:01;100353.02;;;8.09;82.34
84841;BME280;75088;53.114;18.040;2024-03-23T01:13:08;100353.92;;;8.08;82.51
84841;BME280;75088;53.114;18.040;2024-03-23T01:14:14;100353.92;;;8.07;82.64
84841;BME280;75088;53.114;18.040;2024-03-23T01:15:21;100357.29;;;8.07;82.31
84841;BME280;75088;53.114;18.040;2024-03-23T01:16:27;100361.89;;;8.06;82.45
84841;BME280;75088;53.114;18.040;2024-03-23T01:17:33;100361.37;;;8.05;82.33
84841;BME280;75088;53.114;18.040;2024-03-23T01:18:40;100367.02;;;8.05;82.63
84841;BME280;75088;53.114;18.040;2024-03-23T01:19:46;100362.79;;;8.05;82.45
84841;BME280;75088;53.114;18.040;2024-03-23T01:20:53;100361.73;;;8.05;82.32
84841;BME280;75088;53.114;18.040;2024-03-23T01:21:59;100359.07;;;8.05;82.70
84841;BME280;75088;53.114;18.040;2024-03-23T01:23:05;100357.30;;;8.06;82.57
84841;BME280;75088;53.114;18.040;2024-03-23T01:24:12;100359.24;;;8.06;82.70
84841;BME280;75088;53.114;18.040;2024-03-23T01:25:19;100364.02;;;8.06;82.74
84841;BME280;75088;53.114;18.040;2024-03-23T01:26:26;100361.72;;;8.06;82.35
84841;BME280;75088;53.114;18.040;2024-03-23T01:27:32;100361.01;;;8.06;82.34
84841;BME280;75088;53.114;18.040;2024-03-23T01:28:39;100361.72;;;8.06;82.18
84841;BME280;75088;53.114;18.040;2024-03-23T01:29:46;100357.65;;;8.06;82.27
84841;BME280;75088;53.114;18.040;2024-03-23T01:30:52;100358.00;;;8.06;82.06
84841;BME280;75088;53.114;18.040;2024-03-23T01:31:58;100358.35;;;8.06;82.21
84841;BME280;75088;53.114;18.040;2024-03-23T01:33:05;100355.34;;;8.06;81.83
84841;BME280;75088;53.114;18.040;2024-03-23T01:34:11;100354.81;;;8.06;81.65
84841;BME280;75088;53.114;18.040;2024-03-23T01:35:18;100356.23;;;8.06;81.69
84841;BME280;75088;53.114;18.040;2024-03-23T01:36:24;100351.63;;;8.06;81.98
84841;BME280;75088;53.114;18.040;2024-03-23T01:37:31;100348.80;;;8.06;81.87
84841;BME280;75088;53.114;18.040;2024-03-23T01:38:37;100353.75;;;8.07;81.92
84841;BME280;75088;53.114;18.040;2024-03-23T01:39:43;100354.29;;;8.06;81.51
84841;BME280;75088;53.114;18.040;2024-03-23T01:40:50;100352.16;;;8.07;81.53
84841;BME280;75088;53.114;18.040;2024-03-23T01:42:02;100346.85;;;8.07;81.75
84841;BME280;75088;53.114;18.040;2024-03-23T01:43:09;100345.09;;;8.06;81.99
84841;BME280;75088;53.114;18.040;2024-03-23T01:44:15;100346.33;;;8.06;81.64
84841;BME280;75088;53.114;18.040;2024-03-23T01:45:23;100347.21;;;8.06;81.80
84841;BME280;75088;53.114;18.040;2024-03-23T01:46:29;100347.04;;;8.05;81.39
84841;BME280;75088;53.114;18.040;2024-03-23T01:47:36;100349.34;;;8.05;81.81
84841;BME280;75088;53.114;18.040;2024-03-23T01:48:42;100352.35;;;8.04;81.69
84841;BME280;75088;53.114;18.040;2024-03-23T01:49:48;100348.45;;;8.03;81.69
84841;BME280;75088;53.114;18.040;2024-03-23T01:50:55;100347.94;;;8.03;82.00
84841;BME280;75088;53.114;18.040;2024-03-23T01:52:01;100347.92;;;8.04;81.88
84841;BME280;75088;53.114;18.040;2024-03-23T01:53:08;100342.81;;;8.03;81.90
84841;BME280;75088;53.114;18.040;2024-03-23T01:54:15;100345.46;;;8.03;81.95
84841;BME280;75088;53.114;18.040;2024-03-23T01:55:21;100342.80;;;8.02;82.00
84841;BME280;75088;53.114;18.040;2024-03-23T01:56:28;100344.40;;;8.02;81.98
84841;BME280;75088;53.114;18.040;2024-03-23T01:57:35;100346.52;;;8.02;82.13
84841;BME280;75088;53.114;18.040;2024-03-23T01:58:41;100343.34;;;8.02;82.10
84841;BME280;75088;53.114;18.040;2024-03-23T01:59:48;100344.05;;;8.00;82.03
84841;BME280;75088;53.114;18.040;2024-03-23T02:00:59;100341.58;;;8.00;81.85
84841;BME280;75088;53.114;18.040;2024-03-23T02:02:06;100340.69;;;8.00;81.65
84841;BME280;75088;53.114;18.040;2024-03-23T02:03:29;100340.70;;;8.00;81.89
84841;BME280;75088;53.114;18.040;2024-03-23T02:04:36;100345.66;;;7.98;81.83
84841;BME280;75088;53.114;18.040;2024-03-23T02:05:42;100343.72;;;7.97;82.06
84841;BME280;75088;53.114;18.040;2024-03-23T02:06:49;100344.26;;;7.96;82.10
84841;BME280;75088;53.114;18.040;2024-03-23T02:07:56;100347.80;;;7.96;81.79
84841;BME280;75088;53.114;18.040;2024-03-23T02:09:02;100345.33;;;7.95;82.26
84841;BME280;75088;53.114;18.040;2024-03-23T02:10:11;100339.31;;;7.94;82.12
84841;BME280;75088;53.114;18.040;2024-03-23T02:11:18;100338.77;;;7.95;82.14
84841;BME280;75088;53.114;18.040;2024-03-23T02:12:25;100340.72;;;7.95;82.19
84841;BME280;75088;53.114;18.040;2024-03-23T02:13:31;100333.48;;;7.95;82.16
84841;BME280;75088;53.114;18.040;2024-03-23T02:14:37;100334.70;;;7.96;82.24
84841;BME280;75088;53.114;18.040;2024-03-23T02:15:44;100338.95;;;7.97;82.14
84841;BME280;75088;53.114;18.040;2024-03-23T02:16:50;100337.00;;;7.97;82.32
84841;BME280;75088;53.114;18.040;2024-03-23T02:17:56;100335.05;;;7.98;82.25
84841;BME280;75088;53.114;18.040;2024-03-23T02:19:03;100328.17;;;7.95;82.19
84841;BME280;75088;53.114;18.040;2024-03-23T02:20:13;100328.51;;;7.97;82.23
84841;BME280;75088;53.114;18.040;2024-03-23T02:21:19;100330.81;;;7.97;81.97
84841;BME280;75088;53.114;18.040;2024-03-23T02:22:25;100327.27;;;7.97;81.87
84841;BME280;75088;53.114;18.040;2024-03-23T02:23:33;100328.16;;;7.97;82.03
84841;BME280;75088;53.114;18.040;2024-03-23T02:24:39;100327.45;;;7.96;82.16
84841;BME280;75088;53.114;18.040;2024-03-23T02:25:46;100326.91;;;7.96;82.02
84841;BME280;75088;53.114;18.040;2024-03-23T02:26:53;100323.39;;;7.95;82.13
84841;BME280;75088;53.114;18.040;2024-03-23T02:27:59;100320.73;;;7.95;81.82
84841;BME280;75088;53.114;18.040;2024-03-23T02:29:05;100317.38;;;7.94;82.27
84841;BME280;75088;53.114;18.040;2024-03-23T02:30:13;100316.48;;;7.94;82.04
84841;BME280;75088;53.114;18.040;2024-03-23T02:31:20;100316.67;;;7.95;81.98
84841;BME280;75088;53.114;18.040;2024-03-23T02:32:26;100315.42;;;7.95;82.18
84841;BME280;75088;53.114;18.040;2024-03-23T02:33:33;100314.89;;;7.96;82.37
84841;BME280;75088;53.114;18.040;2024-03-23T02:34:43;100311.36;;;7.96;82.21
84841;BME280;75088;53.114;18.040;2024-03-23T02:35:49;100310.29;;;7.96;82.15
84841;BME280;75088;53.114;18.040;2024-03-23T02:36:55;100305.15;;;7.97;82.44
84841;BME280;75088;53.114;18.040;2024-03-23T02:38:02;100307.98;;;7.97;82.23
84841;BME280;75088;53.114;18.040;2024-03-23T02:39:08;100303.75;;;7.97;82.07
84841;BME280;75088;53.114;18.040;2024-03-23T02:40:16;100303.39;;;7.96;82.04
84841;BME280;75088;53.114;18.040;2024-03-23T02:41:23;100306.05;;;7.95;81.96
84841;BME280;75088;53.114;18.040;2024-03-23T02:42:29;100306.95;;;7.94;82.27
84841;BME280;75088;53.114;18.040;2024-03-23T02:43:36;100305.55;;;7.93;81.86
84841;BME280;75088;53.114;18.040;2024-03-23T02:44:42;100304.86;;;7.92;82.03
84841;BME280;75088;53.114;18.040;2024-03-23T02:45:48;100298.32;;;7.92;82.04
84841;BME280;75088;53.114;18.040;2024-03-23T02:46:55;100299.38;;;7.93;82.18
84841;BME280;75088;53.114;18.040;2024-03-23T02:48:01;100299.02;;;7.92;82.30
84841;BME280;75088;53.114;18.040;2024-03-23T02:49:09;100296.91;;;7.92;82.22
84841;BME280;75088;53.114;18.040;2024-03-23T02:50:15;100299.38;;;7.92;82.30
84841;BME280;75088;53.114;18.040;2024-03-23T02:51:21;100295.85;;;7.92;82.34
84841;BME280;75088;53.114;18.040;2024-03-23T02:52:28;100291.60;;;7.92;82.48
84841;BME280;75088;53.114;18.040;2024-03-23T02:53:35;100294.25;;;7.92;82.17
84841;BME280;75088;53.114;18.040;2024-03-23T02:54:41;100292.84;;;7.92;82.38
84841;BME280;75088;53.114;18.040;2024-03-23T02:55:49;100289.30;;;7.92;82.13
84841;BME280;75088;53.114;18.040;2024-03-23T02:56:56;100286.48;;;7.91;82.04
84841;BME280;75088;53.114;18.040;2024-03-23T02:58:02;100285.41;;;7.91;82.21
84841;BME280;75088;53.114;18.040;2024-03-23T02:59:09;100283.29;;;7.91;82.52
84841;BME280;75088;53.114;18.040;2024-03-23T03:00:15;100282.05;;;7.90;82.28
84841;BME280;75088;53.114;18.040;2024-03-23T03:01:22;100278.36;;;7.88;81.96
84841;BME280;75088;53.114;18.040;2024-03-23T03:02:28;100277.48;;;7.87;82.03
84841;BME280;75088;53.114;18.040;2024-03-23T03:03:35;100269.71;;;7.84;82.18
84841;BME280;75088;53.114;18.040;2024-03-23T03:04:42;100271.13;;;7.86;82.22
84841;BME280;75088;53.114;18.040;2024-03-23T03:05:49;100268.46;;;7.85;82.30
84841;BME280;75088;53.114;18.040;2024-03-23T03:07:00;100266.17;;;7.85;82.04
84841;BME280;75088;53.114;18.040;2024-03-23T03:08:07;100260.70;;;7.85;82.35
84841;BME280;75088;53.114;18.040;2024-03-23T03:09:14;100257.69;;;7.85;82.05
84841;BME280;75088;53.114;18.040;2024-03-23T03:10:20;100255.21;;;7.85;82.57
84841;BME280;75088;53.114;18.040;2024-03-23T03:11:27;100256.27;;;7.85;82.02
84841;BME280;75088;53.114;18.040;2024-03-23T03:12:33;100257.34;;;7.84;82.23
84841;BME280;75088;53.114;18.040;2024-03-23T03:13:39;100260.17;;;7.84;81.92
84841;BME280;75088;53.114;18.040;2024-03-23T03:14:45;100262.11;;;7.83;82.09
84841;BME280;75088;53.114;18.040;2024-03-23T03:15:52;100258.41;;;7.82;82.06
84841;BME280;75088;53.114;18.040;2024-03-23T03:16:59;100257.70;;;7.82;82.35
84841;BME280;75088;53.114;18.040;2024-03-23T03:18:06;100259.11;;;7.82;81.89
84841;BME280;75088;53.114;18.040;2024-03-23T03:19:12;100255.93;;;7.82;82.31
84841;BME280;75088;53.114;18.040;2024-03-23T03:20:18;100249.56;;;7.82;82.12
84841;BME280;75088;53.114;18.040;2024-03-23T03:21:26;100255.76;;;7.81;82.17
84841;BME280;75088;53.114;18.040;2024-03-23T03:22:33;100254.88;;;7.80;82.07
84841;BME280;75088;53.114;18.040;2024-03-23T03:23:39;100256.11;;;7.81;82.28
84841;BME280;75088;53.114;18.040;2024-03-23T03:24:46;100254.35;;;7.80;81.90
84841;BME280;75088;53.114;18.040;2024-03-23T03:25:52;100255.42;;;7.78;82.07
84841;BME280;75088;53.114;18.040;2024-03-23T03:26:58;100255.08;;;7.77;82.05
84841;BME280;75088;53.114;18.040;2024-03-23T03:28:06;100254.55;;;7.76;82.08
84841;BME280;75088;53.114;18.040;2024-03-23T03:29:12;100251.90;;;7.75;82.01
84841;BME280;75088;53.114;18.040;2024-03-23T03:30:19;100249.79;;;7.75;82.22
84841;BME280;75088;53.114;18.040;2024-03-23T03:31:26;100246.61;;;7.74;82.11
84841;BME280;75088;53.114;18.040;2024-03-23T03:32:33;100242.54;;;7.73;82.14
84841;BME280;75088;53.114;18.040;2024-03-23T03:33:39;100245.38;;;7.73;82.01
84841;BME280;75088;53.114;18.040;2024-03-23T03:34:45;100247.86;;;7.72;82.09
84841;BME280;75088;53.114;18.040;2024-03-23T03:35:52;100252.64;;;7.71;82.13
84841;BME280;75088;53.114;18.040;2024-03-23T03:36:58;100251.05;;;7.69;81.86
84841;BME280;75088;53.114;18.040;2024-03-23T03:38:06;100248.77;;;7.68;81.89
84841;BME280;75088;53.114;18.040;2024-03-23T03:39:12;100249.30;;;7.68;82.17
84841;BME280;75088;53.114;18.040;2024-03-23T03:40:18;100251.96;;;7.66;82.42
84841;BME280;75088;53.114;18.040;2024-03-23T03:41:25;100250.92;;;7.66;82.24
84841;BME280;75088;53.114;18.040;2024-03-23T03:42:31;100253.23;;;7.65;81.99
84841;BME280;75088;53.114;18.040;2024-03-23T03:43:38;100250.41;;;7.64;82.74
84841;BME280;75088;53.114;18.040;2024-03-23T03:44:44;100249.70;;;7.64;82.27
84841;BME280;75088;53.114;18.040;2024-03-23T03:45:54;100246.88;;;7.63;82.60
84841;BME280;75088;53.114;18.040;2024-03-23T03:47:00;100246.70;;;7.63;82.43
84841;BME280;75088;53.114;18.040;2024-03-23T03:48:07;100242.99;;;7.63;82.40
84841;BME280;75088;53.114;18.040;2024-03-23T03:49:14;100242.29;;;7.63;82.42
84841;BME280;75088;53.114;18.040;2024-03-23T03:50:21;100241.92;;;7.63;82.26
84841;BME280;75088;53.114;18.040;2024-03-23T03:51:27;100240.34;;;7.63;81.99
84841;BME280;75088;53.114;18.040;2024-03-23T03:52:34;100239.81;;;7.63;82.34
84841;BME280;75088;53.114;18.040;2024-03-23T03:53:40;100241.04;;;7.63;81.98
84841;BME280;75088;53.114;18.040;2024-03-23T03:54:47;100242.45;;;7.64;82.33
84841;BME280;75088;53.114;18.040;2024-03-23T03:55:53;100242.98;;;7.64;82.52
84841;BME280;75088;53.114;18.040;2024-03-23T03:57:00;100241.92;;;7.63;82.22
84841;BME280;75088;53.114;18.040;2024-03-23T03:58:07;100241.05;;;7.63;82.18
84841;BME280;75088;53.114;18.040;2024-03-23T03:59:13;100241.41;;;7.62;82.40
84841;BME280;75088;53.114;18.040;2024-03-23T04:00:21;100243.70;;;7.61;82.32
84841;BME280;75088;53.114;18.040;2024-03-23T04:01:27;100241.41;;;7.60;82.27
84841;BME280;75088;53.114;18.040;2024-03-23T04:02:33;100239.65;;;7.60;82.26
84841;BME280;75088;53.114;18.040;2024-03-23T04:03:40;100240.54;;;7.60;82.51
84841;BME280;75088;53.114;18.040;2024-03-23T04:04:48;100240.36;;;7.59;82.42
84841;BME280;75088;53.114;18.040;2024-03-23T04:05:55;100241.95;;;7.59;82.47
84841;BME280;75088;53.114;18.040;2024-03-23T04:07:02;100245.67;;;7.58;82.48
84841;BME280;75088;53.114;18.040;2024-03-23T04:08:10;100244.09;;;7.57;82.44
84841;BME280;75088;53.114;18.040;2024-03-23T04:09:16;100243.37;;;7.57;82.47
84841;BME280;75088;53.114;18.040;2024-03-23T04:10:23;100244.27;;;7.56;82.62
84841;BME280;75088;53.114;18.040;2024-03-23T04:11:30;100242.68;;;7.55;82.61
84841;BME280;75088;53.114;18.040;2024-03-23T04:12:36;100239.15;;;7.55;82.58
84841;BME280;75088;53.114;18.040;2024-03-23T04:13:44;100238.26;;;7.55;82.76
84841;BME280;75088;53.114;18.040;2024-03-23T04:14:50;100229.60;;;7.55;82.26
84841;BME280;75088;53.114;18.040;2024-03-23T04:15:57;100229.42;;;7.56;82.41
84841;BME280;75088;53.114;18.040;2024-03-23T04:17:04;100225.70;;;7.56;82.49
84841;BME280;75088;53.114;18.040;2024-03-23T04:18:10;100227.30;;;7.56;82.46
84841;BME280;75088;53.114;18.040;2024-03-23T04:19:16;100226.59;;;7.57;82.94
84841;BME280;75088;53.114;18.040;2024-03-23T04:20:23;100229.23;;;7.56;82.59
84841;BME280;75088;53.114;18.040;2024-03-23T04:21:29;100230.48;;;7.56;82.82
84841;BME280;75088;53.114;18.040;2024-03-23T04:22:36;100230.48;;;7.55;82.85
84841;BME280;75088;53.114;18.040;2024-03-23T04:23:42;100233.66;;;7.54;83.15
84841;BME280;75088;53.114;18.040;2024-03-23T04:24:49;100236.86;;;7.53;82.97
84841;BME280;75088;53.114;18.040;2024-03-23T04:25:55;100239.52;;;7.52;83.28
84841;BME280;75088;53.114;18.040;2024-03-23T04:27:01;100236.35;;;7.50;82.90
84841;BME280;75088;53.114;18.040;2024-03-23T04:28:08;100233.88;;;7.49;82.91
84841;BME280;75088;53.114;18.040;2024-03-23T04:29:15;100231.58;;;7.48;83.13
84841;BME280;75088;53.114;18.040;2024-03-23T04:30:22;100227.69;;;7.48;83.23
84841;BME280;75088;53.114;18.040;2024-03-23T04:31:30;100226.45;;;7.48;83.25
84841;BME280;75088;53.114;18.040;2024-03-23T04:32:39;100225.23;;;7.47;82.98
84841;BME280;75088;53.114;18.040;2024-03-23T04:33:47;100223.81;;;7.47;82.88
84841;BME280;75088;53.114;18.040;2024-03-23T04:34:54;100219.40;;;7.46;82.52
84841;BME280;75088;53.114;18.040;2024-03-23T04:36:00;100216.74;;;7.47;82.82
84841;BME280;75088;53.114;18.040;2024-03-23T04:37:07;100216.38;;;7.47;82.50
84841;BME280;75088;53.114;18.040;2024-03-23T04:38:13;100217.61;;;7.47;82.97
84841;BME280;75088;53.114;18.040;2024-03-23T04:39:21;100220.45;;;7.47;82.57
84841;BME280;75088;53.114;18.040;2024-03-23T04:40:28;100225.21;;;7.48;82.84
84841;BME280;75088;53.114;18.040;2024-03-23T04:41:34;100221.15;;;7.48;82.72
84841;BME280;75088;53.114;18.040;2024-03-23T04:42:40;100215.68;;;7.46;82.56
84841;BME280;75088;53.114;18.040;2024-03-23T04:43:46;100216.92;;;7.47;82.75
84841;BME280;75088;53.114;18.040;2024-03-23T04:44:53;100216.56;;;7.46;82.32
84841;BME280;75088;53.114;18.040;2024-03-23T04:45:59;100215.85;;;7.46;82.70
84841;BME280;75088;53.114;18.040;2024-03-23T04:47:06;100217.27;;;7.47;82.71
84841;BME280;75088;53.114;18.040;2024-03-23T04:48:13;100219.04;;;7.46;82.84
84841;BME280;75088;53.114;18.040;2024-03-23T04:49:19;100225.41;;;7.46;82.94
84841;BME280;75088;53.114;18.040;2024-03-23T04:50:25;100220.64;;;7.44;82.97
84841;BME280;75088;53.114;18.040;2024-03-23T04:51:36;100222.77;;;7.42;82.65
84841;BME280;75088;53.114;18.040;2024-03-23T04:52:43;100222.25;;;7.42;82.42
84841;BME280;75088;53.114;18.040;2024-03-23T04:53:50;100222.59;;;7.42;82.74
84841;BME280;75088;53.114;18.040;2024-03-23T04:54:56;100222.60;;;7.41;82.66
84841;BME280;75088;53.114;18.040;2024-03-23T04:56:03;100223.84;;;7.40;82.79
84841;BME280;75088;53.114;18.040;2024-03-23T04:57:09;100226.15;;;7.39;82.73
84841;BME280;75088;53.114;18.040;2024-03-23T04:58:15;100224.95;;;7.38;82.59
84841;BME280;75088;53.114;18.040;2024-03-23T04:59:22;100222.48;;;7.37;82.69
84841;BME280;75088;53.114;18.040;2024-03-23T05:00:28;100224.27;;;7.35;82.54
84841;BME280;75088;53.114;18.040;2024-03-23T05:01:35;100220.02;;;7.35;82.70
84841;BME280;75088;53.114;18.040;2024-03-23T05:02:44;100217.55;;;7.35;82.73
84841;BME280;75088;53.114;18.040;2024-03-23T05:03:51;100216.30;;;7.36;82.74
84841;BME280;75088;53.114;18.040;2024-03-23T05:04:58;100212.41;;;7.37;82.85
84841;BME280;75088;53.114;18.040;2024-03-23T05:06:05;100210.64;;;7.37;82.57
84841;BME280;75088;53.114;18.040;2024-03-23T05:07:12;100203.40;;;7.35;82.59
84841;BME280;75088;53.114;18.040;2024-03-23T05:08:18;100204.98;;;7.38;82.62
84841;BME280;75088;53.114;18.040;2024-03-23T05:09:25;100203.56;;;7.37;82.92
84841;BME280;75088;53.114;18.040;2024-03-23T05:10:36;100202.34;;;7.37;82.54
84841;BME280;75088;53.114;18.040;2024-03-23T05:11:42;100197.04;;;7.37;82.71
84841;BME280;75088;53.114;18.040;2024-03-23T05:12:49;100198.95;;;7.38;82.83
84841;BME280;75088;53.114;18.040;2024-03-23T05:13:57;100198.08;;;7.38;82.75
84841;BME280;75088;53.114;18.040;2024-03-23T05:15:04;100197.39;;;7.37;83.20
84841;BME280;75088;53.114;18.040;2024-03-23T05:16:10;100191.73;;;7.36;82.75
84841;BME280;75088;53.114;18.040;2024-03-23T05:17:16;100186.61;;;7.36;83.09
84841;BME280;75088;53.114;18.040;2024-03-23T05:18:23;100186.09;;;7.35;82.85
84841;BME280;75088;53.114;18.040;2024-03-23T05:19:31;100181.31;;;7.36;82.79
84841;BME280;75088;53.114;18.040;2024-03-23T05:20:38;100177.59;;;7.37;82.88
84841;BME280;75088;53.114;18.040;2024-03-23T05:21:44;100177.20;;;7.39;82.64
84841;BME280;75088;53.114;18.040;2024-03-23T05:22:51;100178.42;;;7.40;82.96
84841;BME280;75088;53.114;18.040;2024-03-23T05:23:57;100182.84;;;7.40;83.08
84841;BME280;75088;53.114;18.040;2024-03-23T05:25:04;100182.66;;;7.41;83.04
84841;BME280;75088;53.114;18.040;2024-03-23T05:26:10;100183.91;;;7.40;82.98
84841;BME280;75088;53.114;18.040;2024-03-23T05:27:17;100181.61;;;7.40;82.98
84841;BME280;75088;53.114;18.040;2024-03-23T05:28:24;100184.61;;;7.40;83.09
84841;BME280;75088;53.114;18.040;2024-03-23T05:29:30;100186.03;;;7.39;83.03
84841;BME280;75088;53.114;18.040;2024-03-23T05:30:37;100186.59;;;7.38;82.82
84841;BME280;75088;53.114;18.040;2024-03-23T05:31:43;100186.43;;;7.36;82.77
84841;BME280;75088;53.114;18.040;2024-03-23T05:32:49;100182.38;;;7.36;82.98
84841;BME280;75088;53.114;18.040;2024-03-23T05:33:56;100180.61;;;7.34;83.00
84841;BME280;75088;53.114;18.040;2024-03-23T05:35:02;100177.80;;;7.34;82.85
84841;BME280;75088;53.114;18.040;2024-03-23T05:36:09;100175.48;;;7.34;82.64
84841;BME280;75088;53.114;18.040;2024-03-23T05:37:17;100176.55;;;7.33;82.57
84841;BME280;75088;53.114;18.040;2024-03-23T05:38:23;100173.38;;;7.32;82.60
84841;BME280;75088;53.114;18.040;2024-03-23T05:39:30;100170.72;;;7.33;82.70
84841;BME280;75088;53.114;18.040;2024-03-23T05:40:37;100168.05;;;7.35;83.05
84841;BME280;75088;53.114;18.040;2024-03-23T05:41:45;100171.05;;;7.37;83.10
84841;BME280;75088;53.114;18.040;2024-03-23T05:42:51;100167.12;;;7.39;83.26
84841;BME280;75088;53.114;18.040;2024-03-23T05:43:58;100171.00;;;7.40;82.92
84841;BME280;75088;53.114;18.040;2024-03-23T05:45:07;100167.98;;;7.41;82.97
84841;BME280;75088;53.114;18.040;2024-03-23T05:46:13;100164.80;;;7.42;82.94
84841;BME280;75088;53.114;18.040;2024-03-23T05:47:20;100165.68;;;7.43;82.89
84841;BME280;75088;53.114;18.040;2024-03-23T05:48:27;100163.73;;;7.45;82.94
84841;BME280;75088;53.114;18.040;2024-03-23T05:49:35;100158.23;;;7.46;82.66
84841;BME280;75088;53.114;18.040;2024-03-23T05:50:41;100153.64;;;7.47;83.05
84841;BME280;75088;53.114;18.040;2024-03-23T05:51:48;100148.14;;;7.50;82.52
84841;BME280;75088;53.114;18.040;2024-03-23T05:52:54;100144.94;;;7.52;82.87
84841;BME280;75088;53.114;18.040;2024-03-23T05:54:00;100138.21;;;7.53;82.56
84841;BME280;75088;53.114;18.040;2024-03-23T05:55:08;100128.66;;;7.55;82.34
84841;BME280;75088;53.114;18.040;2024-03-23T05:56:15;100118.21;;;7.58;82.53
84841;BME280;75088;53.114;18.040;2024-03-23T05:57:25;100110.95;;;7.60;82.44
84841;BME280;75088;53.114;18.040;2024-03-23T05:58:32;100107.56;;;7.63;82.39
84841;BME280;75088;53.114;18.040;2024-03-23T05:59:38;100109.11;;;7.66;82.29
84841;BME280;75088;53.114;18.040;2024-03-23T06:00:46;100110.11;;;7.72;82.46
84841;BME280;75088;53.114;18.040;2024-03-23T06:01:52;100107.08;;;7.76;82.75
84841;BME280;75088;53.114;18.040;2024-03-23T06:02:58;100099.44;;;7.79;82.72
84841;BME280;75088;53.114;18.040;2024-03-23T06:04:05;100090.39;;;7.82;82.75
84841;BME280;75088;53.114;18.040;2024-03-23T06:05:12;100084.35;;;7.85;82.64
84841;BME280;75088;53.114;18.040;2024-03-23T06:06:18;100082.91;;;7.88;82.66
84841;BME280;75088;53.114;18.040;2024-03-23T06:07:25;100080.41;;;7.91;82.72
84841;BME280;75088;53.114;18.040;2024-03-23T06:08:31;100080.52;;;7.94;82.66
84841;BME280;75088;53.114;18.040;2024-03-23T06:09:38;100083.15;;;7.97;82.43
84841;BME280;75088;53.114;18.040;2024-03-23T06:10:44;100086.15;;;7.98;82.76
84841;BME280;75088;53.114;18.040;2024-03-23T06:11:51;100090.73;;;7.99;82.16
84841;BME280;75088;53.114;18.040;2024-03-23T06:12:57;100098.87;;;8.00;82.48
84841;BME280;75088;53.114;18.040;2024-03-23T06:14:04;100106.64;;;8.01;82.71
84841;BME280;75088;53.114;18.040;2024-03-23T06:15:11;100116.54;;;8.01;82.60
84841;BME280;75088;53.114;18.040;2024-03-23T06:16:17;100119.21;;;8.00;82.28
84841;BME280;75088;53.114;18.040;2024-03-23T06:17:28;100118.16;;;7.98;81.92
84841;BME280;75088;53.114;18.040;2024-03-23T06:18:34;100122.24;;;7.97;82.29
84841;BME280;75088;53.114;18.040;2024-03-23T06:19:41;100119.06;;;7.97;82.40
84841;BME280;75088;53.114;18.040;2024-03-23T06:20:47;100122.77;;;7.97;82.27
84841;BME280;75088;53.114;18.040;2024-03-23T06:21:53;100123.14;;;7.95;82.10
84841;BME280;75088;53.114;18.040;2024-03-23T06:23:00;100124.76;;;7.94;81.93
84841;BME280;75088;53.114;18.040;2024-03-23T06:24:07;100125.48;;;7.93;82.39
84841;BME280;75088;53.114;18.040;2024-03-23T06:25:13;100125.64;;;7.93;82.29
84841;BME280;75088;53.114;18.040;2024-03-23T06:26:20;100124.60;;;7.93;82.19
84841;BME280;75088;53.114;18.040;2024-03-23T06:27:27;100124.23;;;7.93;82.23
84841;BME280;75088;53.114;18.040;2024-03-23T06:28:33;100125.86;;;7.92;81.87
84841;BME280;75088;53.114;18.040;2024-03-23T06:29:40;100124.11;;;7.91;81.85
84841;BME280;75088;53.114;18.040;2024-03-23T06:30:46;100121.98;;;7.91;82.14
84841;BME280;75088;53.114;18.040;2024-03-23T06:31:56;100119.51;;;7.91;81.84
84841;BME280;75088;53.114;18.040;2024-03-23T06:33:02;100115.77;;;7.91;82.25
84841;BME280;75088;53.114;18.040;2024-03-23T06:34:11;100116.98;;;7.93;82.06
84841;BME280;75088;53.114;18.040;2024-03-23T06:35:17;100111.50;;;7.93;82.22
84841;BME280;75088;53.114;18.040;2024-03-23T06:36:23;100108.48;;;7.94;82.36
84841;BME280;75088;53.114;18.040;2024-03-23T06:37:30;100108.64;;;7.95;81.97
84841;BME280;75088;53.114;18.040;2024-03-23T06:38:36;100109.52;;;7.95;82.06
84841;BME280;75088;53.114;18.040;2024-03-23T06:39:43;100110.23;;;7.96;82.34
84841;BME280;75088;53.114;18.040;2024-03-23T06:40:49;100109.16;;;7.97;82.05
84841;BME280;75088;53.114;18.040;2024-03-23T06:41:58;100110.57;;;7.97;81.96